Flight Track Log - Related Links

Times and Time Zones

All times are in EDT time to prevent confusion due to time zone crossing. See the N790CA flight status page for this flight to view local times or setup timezone preferences in your user account.

Time Position Orientation Groundspeed Altitude Reporting Facility
EDT Latitude Longitude Course Direction KTS MPH feet Rate Location/Type
Sat 03:23:52 PM 39.2344 -86.6500 339° North 141 162 4,000  Level Indianapolis Center
Sat 03:24:54 PM 39.2717 -86.6664 341° North 141 162 5,600 1,500 Climbing Indianapolis Center
Sat 03:25:56 PM 39.3114 -86.6772 348° North 143 165 7,100 1,415 Climbing Indianapolis Center
Sat 03:26:57 PM 39.3556 -86.6900 347° North 152 175 8,500 1,415 Climbing Indianapolis Center
Sat 03:27:59 PM 39.4003 -86.7047 346° North 159 183 10,000 1,415 Climbing Indianapolis Center
Sat 03:28:00 PM 39.3631 -86.6821 346° North  Level FlightAware Approximate
Sat 03:29:00 PM 39.4417 -86.7197 344° North 158 182 11,400  Level Indianapolis Center
Sat 03:30:02 PM 39.4819 -86.7347 344° North 153 176 12,800 1,306 Climbing Indianapolis Center
Sat 03:31:04 PM 39.5247 -86.7494 345° North 155 178 14,100 1,317 Climbing Indianapolis Center
Sat 03:32:05 PM 39.5678 -86.7644 345° North 157 181 15,500 1,415 Climbing Indianapolis Center
Sat 03:33:07 PM 39.6203 -86.7828 345° North 160 184 17,000 1,366 Climbing Indianapolis Center
Sat 03:34:08 PM 39.6658 -86.8003 344° North 166 191 18,300 1,220 Climbing Indianapolis Center
Sat 03:35:10 PM 39.7117 -86.8161 345° North 169 194 19,500 1,268 Climbing Indianapolis Center
Sat 03:36:11 PM 39.7581 -86.8331 344° North 173 199 20,900 1,220 Climbing Indianapolis Center
Sat 03:37:13 PM 39.8053 -86.8492 345° North 173 199 22,000 1,122 Climbing Indianapolis Center
Sat 03:38:14 PM 39.8528 -86.8669 344° North 176 203 23,200 1,073 Climbing Indianapolis Center
Sat 03:39:16 PM 39.9011 -86.8833 345° North 178 205 24,200 871 Climbing Indianapolis Center
Sat 03:40:18 PM 39.9511 -86.9017 344° North 184 212 25,000 829 Climbing Indianapolis Center
Sat 03:41:19 PM 40.0044 -86.9211 344° North 194 223 25,900 878 Climbing Indianapolis Center
Sat 03:42:21 PM 40.0703 -86.9444 345° North 203 234 26,800 829 Climbing Indianapolis Center
Sat 03:43:22 PM 40.1275 -86.9650 345° North 209 241 27,600 702 Climbing Indianapolis Center
Sat 03:43:55 PM 40.1519 -86.9739 344° North 212 244 27,900 255 Climbing Chicago Center
Sat 03:44:56 PM 40.2125 -86.9953 345° North 223 257 28,000 49 Climbing Chicago Center
Sat 03:45:58 PM 40.2781 -87.0208 343° North 245 282 28,000  Level Chicago Center
Sat 03:47:00 PM 40.3644 -87.0508 345° North 270 311 28,000  Level Chicago Center
Sat 03:48:01 PM 40.4378 -87.0772 345° North 274 315 28,000  Level Chicago Center
Sat 03:49:03 PM 40.5122 -87.1042 345° North 278 320 28,000  Level Chicago Center
Sat 03:50:05 PM 40.5872 -87.1311 345° North 279 321 28,000  Level Chicago Center
Sat 03:51:07 PM 40.6631 -87.1594 344° North 284 327 28,000  Level Chicago Center
Sat 03:52:08 PM 40.7539 -87.1925 345° North 283 326 28,000  Level Chicago Center
Sat 03:53:10 PM 40.8289 -87.2206 344° North 282 325 28,000  Level Chicago Center
Sat 03:54:12 PM 40.9047 -87.2472 345° North 284 327 28,000  Level Chicago Center
Sat 03:55:13 PM 40.9806 -87.2764 344° North 286 329 28,000  Level Chicago Center
Sat 03:56:15 PM 41.0567 -87.3036 345° North 285 328 28,000  Level Chicago Center
Sat 03:57:17 PM 41.1317 -87.3328 344° North 284 327 28,000  Level Chicago Center
Sat 03:58:19 PM 41.2214 -87.3661 344° North 281 323 28,000  Level Chicago Center
Sat 03:59:21 PM 41.2964 -87.3931 345° North 280 322 28,000  Level Chicago Center
Sat 04:00:22 PM 41.3706 -87.4222 344° North 281 323 28,000  Level Chicago Center
Sat 04:01:24 PM 41.4456 -87.4492 345° North 282 325 28,000  Level Chicago Center
Sat 04:02:26 PM 41.5192 -87.4775 344° North 279 321 28,000  Level Chicago Center
Sat 04:03:28 PM 41.6081 -87.5106 344° North 280 322 28,000  Level Chicago Center
Sat 04:04:30 PM 41.6819 -87.5378 345° North 280 322 28,000  Level Chicago Center
Sat 04:05:32 PM 41.7550 -87.5669 343° North 277 319 28,000  Level Chicago Center
Sat 04:06:33 PM 41.8300 -87.5942 345° North 282 325 28,000  Level Chicago Center
Sat 04:07:35 PM 41.9047 -87.6225 344° North 282 325 28,000 -194 Level Chicago Center
Sat 04:08:37 PM 41.9939 -87.6569 344° North 282 325 27,600 -726 Descending Chicago Center
Sat 04:09:39 PM 42.0756 -87.6889 344° North 303 349 26,500 -774 Descending Chicago Center
Sat 04:10:41 PM 42.1569 -87.7200 344° North 308 354 26,000 -244 Descending Chicago Center
Sat 04:11:42 PM 42.2339 -87.7497 344° North 294 338 26,000  Level Chicago Center
Sat 04:12:44 PM 42.3081 -87.7781 344° North 282 325 26,000  Level Chicago Center
Sat 04:13:46 PM 42.3861 -87.8081 344° North 277 319 26,000  Level Chicago Center
Sat 04:14:48 PM 42.4578 -87.8358 344° North 269 310 26,000  Level Chicago Center
Sat 04:15:50 PM 42.5436 -87.8692 344° North 273 314 26,000  Level Chicago Center
Sat 04:16:52 PM 42.6164 -87.8958 345° North 272 313 26,000  Level Chicago Center
Sat 04:17:53 PM 42.6886 -87.9256 343° North 270 311 26,000  Level Chicago Center
Sat 04:18:55 PM 42.7606 -87.9542 344° North 270 311 26,000  Level Chicago Center
Sat 04:19:57 PM 42.8333 -87.9819 344° North 270 311 26,000  Level Chicago Center
Sat 04:20:59 PM 42.9058 -88.0097 344° North 270 311 26,000  Level Chicago Center
Sat 04:22:01 PM 42.9894 -88.0436 343° North 269 310 26,000  Level Chicago Center
Sat 04:23:02 PM 43.0608 -88.0722 344° North 269 310 26,000  Level Chicago Center
Sat 04:24:04 PM 43.1322 -88.0994 344° North 267 307 26,000  Level Chicago Center
Sat 04:25:06 PM 43.2036 -88.1281 344° North 267 307 26,000  Level Chicago Center
Sat 04:26:08 PM 43.2742 -88.1561 344° North 266 306 26,000  Level Chicago Center
Sat 04:27:10 PM 43.3567 -88.1892 344° North 266 306 26,000  Level Chicago Center
Sat 04:28:11 PM 43.4275 -88.2175 344° North 267 307 26,000  Level Chicago Center
Sat 04:29:13 PM 43.4983 -88.2456 344° North 268 308 26,000  Level Chicago Center
Sat 04:30:15 PM 43.5681 -88.2733 344° North 264 304 26,000  Level Chicago Center
Sat 04:31:17 PM 43.6367 -88.3011 344° North 259 298 26,000  Level Chicago Center
Sat 04:32:19 PM 43.7164 -88.3331 344° North 258 297 26,000  Level Chicago Center
Sat 04:33:20 PM 43.7842 -88.3614 343° North 256 295 26,000  Level Chicago Center
Sat 04:34:22 PM 43.8522 -88.3894 343° North 254 292 26,000 48 Level Chicago Center
Sat 04:35:24 PM 43.9214 -88.4169 344° North 257 296 26,100  Climbing Chicago Center
Sat 04:36:26 PM 43.9886 -88.4453 343° North 255 293 26,000 -97 Descending Chicago Center
Sat 04:37:28 PM 44.0567 -88.4717 344° North 253 291 25,900 -581 Descending Chicago Center
Sat 04:38:30 PM 44.1397 -88.5058 344° North 264 304 24,800 -871 Descending Chicago Center
Sat 04:39:32 PM 44.2153 -88.5364 344° North 278 320 24,100 -537 Descending Chicago Center
Sat 04:40:33 PM 44.2872 -88.5661 344° North 272 313 23,700 -683 Descending Chicago Center
Sat 04:41:35 PM 44.3611 -88.5981 343° North 276 318 22,700 -919 Descending Chicago Center
Sat 04:42:37 PM 44.4353 -88.6281 344° North 279 321 21,800 -871 Descending Chicago Center
Sat 04:43:39 PM 44.5106 -88.6600 343° North 281 323 20,900 -976 Descending Chicago Center
Sat 04:44:40 PM 44.5978 -88.6969 343° North 280 322 19,800 -976 Descending Chicago Center
Sat 04:45:42 PM 44.6728 -88.7264 344° North 280 322 18,900 -871 Descending Chicago Center
Sat 04:46:44 PM 44.7456 -88.7572 343° North 273 314 18,000 -823 Descending Chicago Center
Sat 04:47:46 PM 44.8178 -88.7892 343° North 272 313 17,200 -838 Descending Chicago Center
Sat 04:49:00 PM 44.9014 -88.8219 344° North 271 312 16,100 -978 Descending Minneapolis Center
Sat 04:50:01 PM 44.9861 -88.8586 343° North 272 313 15,000 -927 Descending Minneapolis Center
Sat 04:51:03 PM 45.0536 -88.8881 343° North 271 312 14,200 -871 Descending Minneapolis Center
Sat 04:52:05 PM 45.1228 -88.9186 343° North 262 302 13,200 -919 Descending Minneapolis Center
Sat 04:53:07 PM 45.1906 -88.9456 344° North 255 293 12,300 -1,016 Descending Minneapolis Center
Sat 04:54:09 PM 45.2686 -88.9800 343° North 243 280 11,100 -1,065 Descending Minneapolis Center
Sat 04:55:11 PM 45.3269 -89.0053 343° North 223 257 10,100 -968 Descending Minneapolis Center
Sat 04:56:13 PM 45.3761 -89.0244 345° North 188 216 9,100 -1,024 Descending Minneapolis Center
Sat 04:57:14 PM 45.4272 -89.0483 342° North 192 221 8,000 -1,122 Descending Minneapolis Center
Sat 04:58:16 PM 45.4839 -89.0758 341° North 203 234 6,800 -1,209 Descending Minneapolis Center
Sat 04:59:23 PM 45.5558 -89.1067 343° North 218 251 5,400 -1,254 Descending Minneapolis Center
Sat 05:01:00 PM 45.6508 -89.1370 344° North  Level FlightAware Approximate
Sat 05:08:00 PM 45.9167 -89.2667 341° North  Level FlightAware Approximate
Sat 05:09:00 PM 45.9323 -89.2683 341° North  Level Estimated
Sat 05:10:00 PM 45.9323 -89.2683 341° North  Level Estimated
Sat 05:11:00 PM 45.9323 -89.2683 341° North  Level Estimated
Sat 05:12:00 PM 45.9323 -89.2683 341° North  Level Estimated

Login

Don't have an account? Register now (free) for customized features, flight alerts, and more!